Time;durP1;ratioP1;P1;durP2;ratioP2;P2;SDS_P1;SDS_P2;PMS_P1;PMS_P2;Temp;Humidity;BMP_temperature;BMP_pressure;BME280_temperature;BME280_humidity;BME280_pressure;Samples;Min_cycle;Max_cycle;Signal;HPM_P1;HPM_P2
2023/01/08 00:02:23;;;;;;;3.63;1.80;;;;;;;;;;5024084;28;20050;-83
2023/01/08 00:04:48;;;;;;;2.80;1.60;;;;;;;;;;5023100;28;20042;-82
2023/01/08 00:07:14;;;;;;;3.53;2.05;;;;;;;;;;5023957;28;20063;-84
2023/01/08 00:09:39;;;;;;;6.50;1.90;;;;;;;;;;5023162;28;20053;-81
2023/01/08 00:12:05;;;;;;;4.63;1.50;;;;;;;;;;5007342;28;20106;-81
2023/01/08 00:14:31;;;;;;;2.92;1.48;;;;;;;;;;5023413;28;20125;-82
2023/01/08 00:16:56;;;;;;;2.97;1.60;;;;;;;;;;5023750;28;20070;-82
2023/01/08 00:19:22;;;;;;;3.45;2.03;;;;;;;;;;5023178;28;20029;-82
2023/01/08 00:21:47;;;;;;;3.25;1.70;;;;;;;;;;5023545;28;20038;-83
2023/01/08 00:24:13;;;;;;;2.53;1.52;;;;;;;;;;5023649;28;20038;-83
2023/01/08 00:26:38;;;;;;;2.38;1.33;;;;;;;;;;5005736;28;20033;-81
2023/01/08 00:29:04;;;;;;;3.40;1.20;;;;;;;;;;5007034;28;20030;-82
2023/01/08 00:31:29;;;;;;;1.52;1.10;;;;;;;;;;5024996;28;20037;-83
2023/01/08 00:33:55;;;;;;;1.63;1.17;;;;;;;;;;5025043;28;20509;-84
2023/01/08 00:36:20;;;;;;;1.67;1.10;;;;;;;;;;5022943;28;20041;-82
2023/01/08 00:38:46;;;;;;;2.88;1.40;;;;;;;;;;5025916;28;20065;-82
2023/01/08 00:41:13;;;;;;;2.47;1.48;;;;;;;;;;5025601;28;20030;-83
2023/01/08 00:43:39;;;;;;;1.80;1.30;;;;;;;;;;5022635;28;20038;-83
2023/01/08 00:46:05;;;;;;;2.03;1.20;;;;;;;;;;5007389;28;20040;-83
2023/01/08 00:48:32;;;;;;;2.22;1.30;;;;;;;;;;5025381;28;20044;-82
2023/01/08 00:51:02;;;;;;;2.47;1.42;;;;;;;;;;5025795;28;20446;-84
2023/01/08 00:53:28;;;;;;;2.33;1.40;;;;;;;;;;5008802;28;20037;-82
2023/01/08 00:56:05;;;;;;;3.92;1.40;;;;;;;;;;5006517;28;20038;-83
2023/01/08 00:58:31;;;;;;;1.73;1.13;;;;;;;;;;5024032;28;20564;-83
2023/01/08 01:00:56;;;;;;;2.13;1.25;;;;;;;;;;5025443;28;20033;-82
2023/01/08 01:03:22;;;;;;;1.50;0.98;;;;;;;;;;5024980;28;20470;-83
2023/01/08 01:05:48;;;;;;;1.85;1.20;;;;;;;;;;5023116;28;20073;-83
2023/01/08 01:08:14;;;;;;;3.22;1.10;;;;;;;;;;5023780;28;20042;-81
2023/01/08 01:10:40;;;;;;;1.45;0.95;;;;;;;;;;5024737;28;20046;-83
2023/01/08 01:13:05;;;;;;;2.00;1.13;;;;;;;;;;5007254;28;20038;-82
2023/01/08 01:15:31;;;;;;;2.28;1.30;;;;;;;;;;5007031;28;20034;-82
2023/01/08 01:17:57;;;;;;;2.42;1.38;;;;;;;;;;5023827;28;20451;-83
2023/01/08 01:20:22;;;;;;;1.80;1.30;;;;;;;;;;5022251;28;20034;-83
2023/01/08 01:22:49;;;;;;;3.65;1.80;;;;;;;;;;5022666;28;20030;-83
2023/01/08 01:25:15;;;;;;;4.07;1.80;;;;;;;;;;5022735;28;20035;-82
2023/01/08 01:27:40;;;;;;;4.55;1.70;;;;;;;;;;5022228;28;20077;-82
2023/01/08 01:30:07;;;;;;;2.70;1.50;;;;;;;;;;5025172;28;20037;-82
2023/01/08 01:32:32;;;;;;;1.60;1.15;;;;;;;;;;5024702;28;20037;-83
2023/01/08 01:34:58;;;;;;;2.17;1.40;;;;;;;;;;5005984;28;20406;-83
2023/01/08 01:37:23;;;;;;;2.30;1.50;;;;;;;;;;5023510;28;20095;-82
2023/01/08 01:39:49;;;;;;;1.98;1.30;;;;;;;;;;5023714;28;20068;-83
2023/01/08 01:42:58;;;;;;;2.22;1.30;;;;;;;;;;5023531;28;20037;-82
2023/01/08 01:45:19;;;;;;;2.47;1.30;;;;;;;;;;5019454;28;20049;-81
2023/01/08 01:47:50;;;;;;;2.65;1.40;;;;;;;;;;5022001;28;20050;-82
2023/01/08 01:50:21;;;;;;;1.83;1.17;;;;;;;;;;5023572;28;20064;-82
2023/01/08 01:53:22;;;;;;;1.88;1.10;;;;;;;;;;5021550;28;20089;-83
2023/01/08 01:55:48;;;;;;;1.88;1.10;;;;;;;;;;5002380;28;20048;-82
2023/01/08 01:58:22;;;;;;;2.10;1.25;;;;;;;;;;5006066;28;20034;-85
2023/01/08 02:00:49;;;;;;;2.30;1.15;;;;;;;;;;5006183;28;20037;-82
2023/01/08 02:03:15;;;;;;;2.20;1.30;;;;;;;;;;5023628;28;20542;-83
2023/01/08 02:06:02;;;;;;;2.38;1.20;;;;;;;;;;5021819;28;20068;-82
2023/01/08 02:08:33;;;;;;;2.78;1.55;;;;;;;;;;5023579;28;20048;-82
2023/01/08 02:11:05;;;;;;;4.13;1.50;;;;;;;;;;5022094;28;20045;-82
2023/01/08 02:13:35;;;;;;;6.95;1.40;;;;;;;;;;5021976;28;20061;-83
2023/01/08 02:16:19;;;;;;;3.35;1.20;;;;;;;;;;5005258;28;20048;-82
2023/01/08 02:18:54;;;;;;;3.45;1.10;;;;;;;;;;5021902;28;20030;-83
2023/01/08 02:21:42;;;;;;;1.77;1.23;;;;;;;;;;5022726;28;20029;-83
2023/01/08 02:24:22;;;;;;;2.17;1.30;;;;;;;;;;5022958;28;20041;-83
2023/01/08 02:26:52;;;;;;;2.35;1.40;;;;;;;;;;5019840;28;20113;-82
2023/01/08 02:29:21;;;;;;;2.05;1.40;;;;;;;;;;5027884;28;20034;-83
2023/01/08 02:31:47;;;;;;;2.85;1.48;;;;;;;;;;5026078;28;20045;-82
2023/01/08 02:34:12;;;;;;;1.40;1.10;;;;;;;;;;5025058;28;20038;-82
2023/01/08 02:36:46;;;;;;;2.10;1.33;;;;;;;;;;5008864;28;20410;-82
2023/01/08 02:39:39;;;;;;;1.83;1.20;;;;;;;;;;5024857;28;20060;-82
2023/01/08 02:42:08;;;;;;;2.50;1.25;;;;;;;;;;5024526;28;20045;-82
2023/01/08 02:44:55;;;;;;;3.80;1.40;;;;;;;;;;5024527;28;20038;-82
2023/01/08 02:47:24;;;;;;;3.45;1.30;;;;;;;;;;5026433;28;20037;-82
2023/01/08 02:49:58;;;;;;;2.28;1.33;;;;;;;;;;5008711;28;20064;-83
2023/01/08 02:52:26;;;;;;;2.35;1.30;;;;;;;;;;5025280;28;20041;-83
2023/01/08 02:54:53;;;;;;;5.22;1.50;;;;;;;;;;5025794;28;20045;-82
2023/01/08 02:57:19;;;;;;;2.35;1.30;;;;;;;;;;5026710;28;20073;-83
2023/01/08 02:59:47;;;;;;;6.50;1.20;;;;;;;;;;5024468;28;20057;-82
2023/01/08 03:02:13;;;;;;;6.00;1.65;;;;;;;;;;5026539;28;20034;-82
2023/01/08 03:04:48;;;;;;;4.55;1.48;;;;;;;;;;5025627;28;20060;-81
2023/01/08 03:07:13;;;;;;;12.63;9.80;;;;;;;;;;5026547;28;20049;-82
2023/01/08 03:09:39;;;;;;;4.25;2.30;;;;;;;;;;5026527;28;20034;-81
2023/01/08 03:12:15;;;;;;;2.25;1.50;;;;;;;;;;5027295;28;20045;-83
2023/01/08 03:14:52;;;;;;;5.43;3.72;;;;;;;;;;5026745;28;20548;-82
2023/01/08 03:17:24;;;;;;;5.35;3.10;;;;;;;;;;5024850;28;20042;-81
2023/01/08 03:19:54;;;;;;;3.53;1.75;;;;;;;;;;5025260;28;20415;-82
2023/01/08 03:22:21;;;;;;;3.20;1.70;;;;;;;;;;5026591;28;20037;-84
2023/01/08 03:24:51;;;;;;;3.13;1.95;;;;;;;;;;5024022;28;20038;-83
2023/01/08 03:27:22;;;;;;;3.05;1.92;;;;;;;;;;5026470;28;20089;-83
2023/01/08 03:29:50;;;;;;;3.22;1.70;;;;;;;;;;5025735;28;20042;-82
2023/01/08 03:32:18;;;;;;;2.63;1.50;;;;;;;;;;5024322;28;20034;-80
2023/01/08 03:34:47;;;;;;;2.38;1.45;;;;;;;;;;5024140;28;20104;-82
2023/01/08 03:37:15;;;;;;;3.60;1.40;;;;;;;;;;5024464;28;20034;-82
2023/01/08 03:39:50;;;;;;;2.05;1.20;;;;;;;;;;5024062;28;20064;-82
2023/01/08 03:42:19;;;;;;;1.58;1.00;;;;;;;;;;5025764;28;20033;-83
2023/01/08 03:44:44;;;;;;;1.45;1.00;;;;;;;;;;5024393;28;20053;-83
2023/01/08 03:47:11;;;;;;;4.70;1.30;;;;;;;;;;5026274;28;20092;-82
2023/01/08 03:49:39;;;;;;;2.08;1.27;;;;;;;;;;5024906;28;20376;-82
2023/01/08 03:52:04;;;;;;;3.13;1.40;;;;;;;;;;5024004;28;20038;-82
2023/01/08 03:54:33;;;;;;;2.10;1.40;;;;;;;;;;5025117;28;20084;-84
2023/01/08 03:56:58;;;;;;;2.25;1.20;;;;;;;;;;5025561;28;20501;-83
2023/01/08 03:59:24;;;;;;;2.40;1.35;;;;;;;;;;5024618;28;20034;-82
2023/01/08 04:01:50;;;;;;;2.50;1.30;;;;;;;;;;5008454;28;20068;-83
2023/01/08 04:04:16;;;;;;;3.95;1.50;;;;;;;;;;5025547;28;20029;-82
2023/01/08 04:06:41;;;;;;;2.92;1.40;;;;;;;;;;5025948;28;20041;-81
2023/01/08 04:09:07;;;;;;;1.75;1.20;;;;;;;;;;5023781;28;20121;-83
2023/01/08 04:11:32;;;;;;;2.65;1.60;;;;;;;;;;5008120;28;20034;-82
2023/01/08 04:13:58;;;;;;;5.35;1.90;;;;;;;;;;5023262;28;20033;-82
2023/01/08 04:16:24;;;;;;;4.38;2.40;;;;;;;;;;5022965;28;20064;-81
2023/01/08 04:18:50;;;;;;;5.78;3.33;;;;;;;;;;5008275;28;20041;-82
2023/01/08 04:21:15;;;;;;;6.72;3.85;;;;;;;;;;5026286;28;20029;-82
2023/01/08 04:23:41;;;;;;;5.38;3.50;;;;;;;;;;5007618;28;20034;-83
2023/01/08 04:26:08;;;;;;;11.30;3.88;;;;;;;;;;5023608;28;20046;-82
2023/01/08 04:28:34;;;;;;;7.85;3.78;;;;;;;;;;5007967;28;20045;-82
2023/01/08 04:31:07;;;;;;;6.90;3.80;;;;;;;;;;5025279;28;20045;-83
2023/01/08 04:33:33;;;;;;;6.05;3.75;;;;;;;;;;5023522;28;20044;-81
2023/01/08 04:35:58;;;;;;;7.25;3.85;;;;;;;;;;5006767;28;20096;-82
2023/01/08 04:38:24;;;;;;;7.38;4.10;;;;;;;;;;5007800;28;20057;-82
2023/01/08 04:40:49;;;;;;;6.40;3.50;;;;;;;;;;5024181;28;20109;-81
2023/01/08 04:43:15;;;;;;;6.63;4.10;;;;;;;;;;5023332;28;20447;-82
2023/01/08 04:45:40;;;;;;;7.20;4.07;;;;;;;;;;5023733;28;20022;-82
2023/01/08 04:48:06;;;;;;;6.82;3.70;;;;;;;;;;5007571;28;20034;-83
2023/01/08 04:50:40;;;;;;;6.80;4.03;;;;;;;;;;5025336;28;20030;-81
2023/01/08 04:53:06;;;;;;;6.22;3.47;;;;;;;;;;5024298;28;20049;-82
2023/01/08 04:55:32;;;;;;;6.25;3.80;;;;;;;;;;5025269;28;20046;-82
2023/01/08 04:57:58;;;;;;;8.40;3.40;;;;;;;;;;5024934;28;20109;-83
2023/01/08 05:00:23;;;;;;;5.10;2.92;;;;;;;;;;5023179;28;20050;-80
2023/01/08 05:02:49;;;;;;;4.05;2.55;;;;;;;;;;5024878;28;20045;-82
2023/01/08 05:05:14;;;;;;;5.25;2.53;;;;;;;;;;5024074;28;20119;-83
2023/01/08 05:07:40;;;;;;;5.13;2.50;;;;;;;;;;5025813;28;20418;-83
2023/01/08 05:10:06;;;;;;;5.20;2.60;;;;;;;;;;5024381;28;20048;-80
2023/01/08 05:12:31;;;;;;;3.30;2.10;;;;;;;;;;5024769;28;20041;-82
2023/01/08 05:14:57;;;;;;;3.67;2.38;;;;;;;;;;5024567;28;20494;-82
2023/01/08 05:17:22;;;;;;;3.47;2.22;;;;;;;;;;5006396;28;20100;-83
2023/01/08 05:19:48;;;;;;;5.20;2.25;;;;;;;;;;5023592;28;20037;-81
2023/01/08 05:22:13;;;;;;;3.53;2.00;;;;;;;;;;5023389;28;20057;-83
2023/01/08 05:24:38;;;;;;;4.57;2.22;;;;;;;;;;5006219;28;20038;-83
2023/01/08 05:27:04;;;;;;;3.67;2.10;;;;;;;;;;5022190;28;20038;-82
2023/01/08 05:29:29;;;;;;;3.80;2.30;;;;;;;;;;5023723;28;20030;-83
2023/01/08 05:31:55;;;;;;;3.22;1.95;;;;;;;;;;5023215;28;20117;-82
2023/01/08 05:34:20;;;;;;;3.60;1.75;;;;;;;;;;5022300;28;20501;-81
2023/01/08 05:36:46;;;;;;;6.38;3.50;;;;;;;;;;5025159;28;20037;-82
2023/01/08 05:39:11;;;;;;;4.07;2.88;;;;;;;;;;5006701;28;20022;-81
2023/01/08 05:41:37;;;;;;;3.33;1.90;;;;;;;;;;5023863;28;20064;-81
2023/01/08 05:44:02;;;;;;;3.65;2.10;;;;;;;;;;5024172;28;20030;-81
2023/01/08 05:46:28;;;;;;;3.40;2.05;;;;;;;;;;5024672;28;20042;-82
2023/01/08 05:48:53;;;;;;;2.85;1.75;;;;;;;;;;5024711;28;20034;-81
2023/01/08 05:51:19;;;;;;;6.13;1.60;;;;;;;;;;5025486;28;20033;-82
2023/01/08 05:53:44;;;;;;;3.42;1.50;;;;;;;;;;5025261;28;20037;-82
2023/01/08 05:56:10;;;;;;;2.58;1.60;;;;;;;;;;5023981;28;20037;-83
2023/01/08 05:58:37;;;;;;;2.67;1.40;;;;;;;;;;5023651;28;20041;-82
2023/01/08 06:01:11;;;;;;;2.42;1.40;;;;;;;;;;5023639;28;20034;-81
2023/01/08 06:03:37;;;;;;;3.03;1.42;;;;;;;;;;5027646;28;20053;-83
2023/01/08 06:06:05;;;;;;;2.47;1.42;;;;;;;;;;5026566;28;20406;-83
2023/01/08 06:08:31;;;;;;;4.85;2.50;;;;;;;;;;5027921;28;20461;-83
2023/01/08 06:11:03;;;;;;;4.07;1.92;;;;;;;;;;5010329;28;20044;-82
2023/01/08 06:13:28;;;;;;;3.42;1.70;;;;;;;;;;5026320;28;20098;-82
2023/01/08 06:15:54;;;;;;;2.45;1.60;;;;;;;;;;5026530;28;20026;-82
2023/01/08 06:18:20;;;;;;;2.97;1.92;;;;;;;;;;5028851;28;20064;-82
2023/01/08 06:20:45;;;;;;;3.53;1.90;;;;;;;;;;5010963;28;20046;-81
2023/01/08 06:23:11;;;;;;;2.42;1.58;;;;;;;;;;5010783;28;20041;-83
2023/01/08 06:25:37;;;;;;;2.05;1.30;;;;;;;;;;5026660;28;20116;-83
2023/01/08 06:28:03;;;;;;;2.00;1.15;;;;;;;;;;5029409;28;20065;-81
2023/01/08 06:30:29;;;;;;;2.17;1.13;;;;;;;;;;5027954;28;20030;-82
2023/01/08 06:32:58;;;;;;;8.70;1.80;;;;;;;;;;5029167;28;20036;-83
2023/01/08 06:35:25;;;;;;;2.42;1.65;;;;;;;;;;5027467;28;20045;-81
2023/01/08 06:37:50;;;;;;;2.55;1.58;;;;;;;;;;5026660;28;20034;-82
2023/01/08 06:40:16;;;;;;;1.90;1.35;;;;;;;;;;5030083;28;20117;-82
2023/01/08 06:42:43;;;;;;;2.55;1.40;;;;;;;;;;5030277;28;20033;-81
2023/01/08 06:45:09;;;;;;;2.60;1.40;;;;;;;;;;5027422;28;20138;-83
2023/01/08 06:47:35;;;;;;;2.00;1.23;;;;;;;;;;5028102;28;20062;-83
2023/01/08 06:50:00;;;;;;;2.00;1.30;;;;;;;;;;5028156;28;20125;-83
2023/01/08 06:52:26;;;;;;;3.72;1.30;;;;;;;;;;5028313;28;20061;-83
2023/01/08 06:54:51;;;;;;;2.15;1.20;;;;;;;;;;5029959;28;20068;-82
2023/01/08 06:57:17;;;;;;;1.65;1.10;;;;;;;;;;5028486;28;20031;-81
2023/01/08 06:59:42;;;;;;;1.75;1.20;;;;;;;;;;5028722;28;20034;-82
2023/01/08 07:02:13;;;;;;;2.72;1.42;;;;;;;;;;5015390;28;20095;-83
2023/01/08 07:04:44;;;;;;;3.78;1.30;;;;;;;;;;5024048;28;20089;-80
2023/01/08 07:07:13;;;;;;;2.65;1.50;;;;;;;;;;5037860;28;20399;-83
2023/01/08 07:09:42;;;;;;;1.95;1.23;;;;;;;;;;5047562;28;20108;-83
2023/01/08 07:12:14;;;;;;;3.17;1.50;;;;;;;;;;5047733;28;20033;-84
2023/01/08 07:14:40;;;;;;;3.38;1.45;;;;;;;;;;5046922;28;20409;-82
2023/01/08 07:17:06;;;;;;;7.28;1.83;;;;;;;;;;5042276;28;20036;-80
2023/01/08 07:19:32;;;;;;;3.85;1.40;;;;;;;;;;5043369;28;20346;-81
2023/01/08 07:21:57;;;;;;;2.42;1.55;;;;;;;;;;5044065;28;20041;-79
2023/01/08 07:24:23;;;;;;;2.47;1.45;;;;;;;;;;5041641;28;20041;-80
2023/01/08 07:26:48;;;;;;;3.88;1.58;;;;;;;;;;5025910;28;20029;-80
2023/01/08 07:29:14;;;;;;;3.25;1.75;;;;;;;;;;5043285;28;20533;-79
2023/01/08 07:31:39;;;;;;;2.97;1.45;;;;;;;;;;5020893;28;20068;-80
2023/01/08 07:34:05;;;;;;;3.65;1.60;;;;;;;;;;5034287;28;20029;-81
2023/01/08 07:36:30;;;;;;;3.47;1.90;;;;;;;;;;5029236;28;20434;-79
2023/01/08 07:38:56;;;;;;;2.85;1.65;;;;;;;;;;5023777;28;20033;-80
2023/01/08 07:41:21;;;;;;;4.30;1.80;;;;;;;;;;5008155;28;20034;-80
2023/01/08 07:43:47;;;;;;;4.55;1.85;;;;;;;;;;5023678;28;20025;-80
2023/01/08 07:46:13;;;;;;;4.20;2.00;;;;;;;;;;5020107;28;20030;-78
2023/01/08 07:48:38;;;;;;;3.83;1.90;;;;;;;;;;5019487;28;20119;-79
2023/01/08 07:51:06;;;;;;;2.75;1.85;;;;;;;;;;5020331;28;20030;-79
2023/01/08 07:53:32;;;;;;;3.45;1.70;;;;;;;;;;5020641;28;20101;-78
2023/01/08 07:56:07;;;;;;;3.10;1.90;;;;;;;;;;5021290;28;20042;-79
2023/01/08 07:58:32;;;;;;;4.03;2.05;;;;;;;;;;5025047;28;20038;-82
2023/01/08 08:00:58;;;;;;;3.15;1.90;;;;;;;;;;5024192;28;20030;-83
2023/01/08 08:03:24;;;;;;;2.80;1.90;;;;;;;;;;5025383;28;20037;-81
2023/01/08 08:05:50;;;;;;;2.78;1.70;;;;;;;;;;5023458;28;20118;-83
2023/01/08 08:08:16;;;;;;;4.00;1.80;;;;;;;;;;5008046;28;20313;-81
2023/01/08 08:10:42;;;;;;;4.80;2.00;;;;;;;;;;5023386;28;20038;-80
2023/01/08 08:13:08;;;;;;;2.25;1.42;;;;;;;;;;5025316;28;20097;-81
2023/01/08 08:15:35;;;;;;;2.40;1.30;;;;;;;;;;5023358;28;20037;-83
2023/01/08 08:18:01;;;;;;;2.67;1.40;;;;;;;;;;5023006;28;20471;-81
2023/01/08 08:20:27;;;;;;;3.80;1.30;;;;;;;;;;5016339;28;20065;-82
2023/01/08 08:22:59;;;;;;;1.92;1.20;;;;;;;;;;5015897;28;20038;-84
2023/01/08 08:25:25;;;;;;;1.95;1.40;;;;;;;;;;5015020;28;20042;-83
2023/01/08 08:27:50;;;;;;;3.65;1.80;;;;;;;;;;5023567;28;20042;-82
2023/01/08 08:30:15;;;;;;;4.75;1.70;;;;;;;;;;5024196;28;20038;-83
2023/01/08 08:32:41;;;;;;;2.35;1.50;;;;;;;;;;5023807;28;20065;-82
2023/01/08 08:35:07;;;;;;;1.85;1.50;;;;;;;;;;5022317;28;20056;-81
2023/01/08 08:37:32;;;;;;;2.33;1.50;;;;;;;;;;5022281;28;20041;-81
2023/01/08 08:39:58;;;;;;;2.15;1.38;;;;;;;;;;5024125;28;20060;-82
2023/01/08 08:42:23;;;;;;;2.33;1.50;;;;;;;;;;5023781;28;20053;-83
2023/01/08 08:44:49;;;;;;;2.35;1.52;;;;;;;;;;5022046;28;20044;-82
2023/01/08 08:47:14;;;;;;;2.83;1.67;;;;;;;;;;5023691;28;20049;-81
2023/01/08 08:49:40;;;;;;;4.07;2.30;;;;;;;;;;5022700;28;20057;-81
2023/01/08 08:52:05;;;;;;;4.70;2.70;;;;;;;;;;5024138;28;20445;-82
2023/01/08 08:54:31;;;;;;;10.55;4.15;;;;;;;;;;5021617;28;20037;-82
2023/01/08 08:56:56;;;;;;;21.58;7.10;;;;;;;;;;5024141;28;20037;-82
2023/01/08 08:59:22;;;;;;;43.88;12.35;;;;;;;;;;5022679;28;20033;-83
2023/01/08 09:01:47;;;;;;;20.30;7.20;;;;;;;;;;5005885;28;20030;-81
2023/01/08 09:04:13;;;;;;;8.27;4.43;;;;;;;;;;5021882;28;20053;-81
2023/01/08 09:06:38;;;;;;;10.73;4.60;;;;;;;;;;5020637;28;20029;-83
2023/01/08 09:09:04;;;;;;;6.63;3.70;;;;;;;;;;5016320;28;20037;-83
2023/01/08 09:11:30;;;;;;;7.40;3.90;;;;;;;;;;5015952;28;20391;-81
2023/01/08 09:13:56;;;;;;;6.60;3.60;;;;;;;;;;5020925;28;20030;-79
2023/01/08 09:16:21;;;;;;;5.38;3.15;;;;;;;;;;5019743;28;20089;-80
2023/01/08 09:18:47;;;;;;;6.32;3.95;;;;;;;;;;5020138;28;20029;-83
2023/01/08 09:21:13;;;;;;;6.43;3.70;;;;;;;;;;5021252;28;20025;-80
2023/01/08 09:23:39;;;;;;;6.45;3.30;;;;;;;;;;5022081;28;20040;-83
2023/01/08 09:26:05;;;;;;;8.50;3.50;;;;;;;;;;5019977;28;20061;-83
2023/01/08 09:28:31;;;;;;;6.70;3.67;;;;;;;;;;5020764;28;20518;-81
2023/01/08 09:31:01;;;;;;;6.18;3.25;;;;;;;;;;5003812;28;20046;-82
2023/01/08 09:33:27;;;;;;;6.82;3.53;;;;;;;;;;5021732;28;20041;-81
2023/01/08 09:35:53;;;;;;;6.07;3.42;;;;;;;;;;5021383;28;20037;-82
2023/01/08 09:38:18;;;;;;;5.85;3.47;;;;;;;;;;5022634;28;20056;-80
2023/01/08 09:41:01;;;;;;;5.45;3.42;;;;;;;;;;5026246;28;20047;-82
2023/01/08 09:43:29;;;;;;;7.72;3.83;;;;;;;;;;5025021;28;20040;-81
2023/01/08 09:45:58;;;;;;;7.10;3.67;;;;;;;;;;5023486;28;20038;-82
2023/01/08 09:48:27;;;;;;;6.97;3.67;;;;;;;;;;5024821;28;20034;-83
2023/01/08 09:50:52;;;;;;;5.53;3.22;;;;;;;;;;5024756;28;20034;-81
2023/01/08 09:53:19;;;;;;;20.52;7.00;;;;;;;;;;5024100;28;20032;-80
2023/01/08 09:55:52;;;;;;;19.00;6.78;;;;;;;;;;5024979;28;20044;-82
2023/01/08 09:58:38;;;;;;;;;;;;;;;;;;5023702;28;20474;-82
2023/01/08 10:01:05;;;;;;;9.77;5.10;;;;;;;;;;5024949;28;19913;-82
2023/01/08 10:03:47;;;;;;;8.73;5.50;;;;;;;;;;5024903;28;20034;-83
2023/01/08 10:06:15;;;;;;;10.18;5.10;;;;;;;;;;5008180;28;20046;-81
2023/01/08 10:08:41;;;;;;;10.10;5.07;;;;;;;;;;5026079;28;20047;-83
2023/01/08 10:11:08;;;;;;;9.25;5.47;;;;;;;;;;5025944;28;20038;-83
2023/01/08 10:13:37;;;;;;;10.13;5.60;;;;;;;;;;5026028;28;20033;-83
2023/01/08 10:16:10;;;;;;;8.80;5.30;;;;;;;;;;5006963;28;20097;-82
2023/01/08 10:18:37;;;;;;;6.47;3.95;;;;;;;;;;5024058;28;20057;-82
2023/01/08 10:21:03;;;;;;;6.32;3.83;;;;;;;;;;5025725;28;20022;-81
2023/01/08 10:23:28;;;;;;;6.30;4.07;;;;;;;;;;5026704;28;20049;-82
2023/01/08 10:25:54;;;;;;;6.38;3.90;;;;;;;;;;5022804;28;20034;-82
2023/01/08 10:28:25;;;;;;;7.82;4.10;;;;;;;;;;5007553;28;20044;-82
2023/01/08 10:30:52;;;;;;;7.15;4.07;;;;;;;;;;5024469;28;20038;-83
2023/01/08 10:33:39;;;;;;;6.60;3.50;;;;;;;;;;5024248;28;20037;-82
2023/01/08 10:36:13;;;;;;;6.72;3.13;;;;;;;;;;5024286;28;20096;-83
2023/01/08 10:38:47;;;;;;;4.57;2.80;;;;;;;;;;5025740;28;20110;-83
2023/01/08 10:41:14;;;;;;;6.82;3.10;;;;;;;;;;5025459;28;20026;-82
2023/01/08 10:43:59;;;;;;;5.90;2.80;;;;;;;;;;5007263;28;20100;-83
2023/01/08 10:46:40;;;;;;;4.53;2.92;;;;;;;;;;5022602;28;20037;-80
2023/01/08 10:49:18;;;;;;;5.95;3.10;;;;;;;;;;5023326;28;20049;-82
2023/01/08 10:51:52;;;;;;;7.72;3.72;;;;;;;;;;5008234;28;20120;-83
2023/01/08 10:54:38;;;;;;;6.47;3.88;;;;;;;;;;5022406;28;20112;-82
2023/01/08 10:57:21;;;;;;;8.77;4.63;;;;;;;;;;5022565;28;20048;-83
2023/01/08 10:59:46;;;;;;;5.72;2.75;;;;;;;;;;5023434;28;20040;-81
2023/01/08 11:02:32;;;;;;;3.72;2.10;;;;;;;;;;5022501;28;20034;-84
2023/01/08 11:04:58;;;;;;;3.28;2.05;;;;;;;;;;5021445;28;20437;-83
2023/01/08 11:07:24;;;;;;;4.25;1.80;;;;;;;;;;5022608;28;20099;-83
2023/01/08 11:09:50;;;;;;;8.75;2.10;;;;;;;;;;5022361;28;20034;-83
2023/01/08 11:12:35;;;;;;;3.67;2.28;;;;;;;;;;5020982;28;20038;-82
2023/01/08 11:15:02;;;;;;;3.88;2.13;;;;;;;;;;5004818;28;20105;-84
2023/01/08 11:17:28;;;;;;;4.05;2.28;;;;;;;;;;5022687;28;20561;-82
2023/01/08 11:19:53;;;;;;;3.53;2.13;;;;;;;;;;5022946;28;20057;-81
2023/01/08 11:22:22;;;;;;;4.05;2.28;;;;;;;;;;5020443;28;20061;-83
2023/01/08 11:24:50;;;;;;;5.18;2.00;;;;;;;;;;5021014;28;20034;-82
2023/01/08 11:27:24;;;;;;;3.63;1.90;;;;;;;;;;5022403;28;20153;-84
2023/01/08 11:30:05;;;;;;;7.05;2.40;;;;;;;;;;5021257;28;20037;-80
2023/01/08 11:32:50;;;;;;;8.10;3.35;;;;;;;;;;5023715;28;20117;-83
2023/01/08 11:35:33;;;;;;;4.97;1.90;;;;;;;;;;5004898;28;20510;-83
2023/01/08 11:38:01;;;;;;;12.35;4.43;;;;;;;;;;5023391;28;20044;-83
2023/01/08 11:40:29;;;;;;;5.90;2.50;;;;;;;;;;5020502;28;20061;-82
2023/01/08 11:43:16;;;;;;;5.15;2.50;;;;;;;;;;5020585;28;20033;-84
2023/01/08 11:45:54;;;;;;;3.78;2.05;;;;;;;;;;5019990;28;20038;-83
2023/01/08 11:48:44;;;;;;;9.43;2.35;;;;;;;;;;5020593;28;20045;-82
2023/01/08 11:51:32;;;;;;;6.85;2.08;;;;;;;;;;5023498;28;20394;-81
2023/01/08 11:54:33;;;;;;;5.03;2.20;;;;;;;;;;5022940;28;20042;-83
2023/01/08 11:57:17;;;;;;;4.25;2.30;;;;;;;;;;5018021;28;20044;-82
2023/01/08 11:59:57;;;;;;;6.47;2.15;;;;;;;;;;5021608;28;20414;-83
2023/01/08 12:02:44;;;;;;;4.18;2.10;;;;;;;;;;5020299;28;20045;-82
2023/01/08 12:05:34;;;;;;;5.55;2.60;;;;;;;;;;5003984;28;20046;-85
2023/01/08 12:08:18;;;;;;;3.85;2.33;;;;;;;;;;5003469;28;20053;-82
2023/01/08 12:10:50;;;;;;;4.68;2.38;;;;;;;;;;5018714;28;20033;-83
2023/01/08 12:13:35;;;;;;;3.80;2.20;;;;;;;;;;5023380;28;20103;-83
2023/01/08 12:16:21;;;;;;;4.93;1.90;;;;;;;;;;5023148;28;20057;-82
2023/01/08 12:19:11;;;;;;;4.03;1.95;;;;;;;;;;5005205;28;20042;-83
2023/01/08 12:22:50;;;;;;;4.35;1.80;;;;;;;;;;5004705;28;20455;-83
2023/01/08 12:25:34;;;;;;;5.93;2.20;;;;;;;;;;4907731;29;20117;-82
2023/01/08 12:28:19;;;;;;;4.20;2.13;;;;;;;;;;4927888;29;20050;-81
2023/01/08 12:31:06;;;;;;;5.18;2.35;;;;;;;;;;5001178;28;20048;-84
2023/01/08 12:33:32;;;;;;;3.83;2.28;;;;;;;;;;5022221;28;20414;-82
2023/01/08 12:36:00;;;;;;;6.05;3.30;;;;;;;;;;5023277;28;20048;-82
2023/01/08 12:38:36;;;;;;;4.75;2.55;;;;;;;;;;5022554;28;20057;-83
2023/01/08 12:41:09;;;;;;;7.00;3.63;;;;;;;;;;5023570;28;20453;-82
2023/01/08 12:43:47;;;;;;;6.53;2.92;;;;;;;;;;5022868;28;20099;-82
2023/01/08 12:46:15;;;;;;;5.18;2.20;;;;;;;;;;5021532;28;20480;-83
2023/01/08 12:48:44;;;;;;;7.85;2.65;;;;;;;;;;5022647;28;20030;-83
2023/01/08 12:51:17;;;;;;;6.15;2.60;;;;;;;;;;5022215;28;20022;-83
2023/01/08 12:53:54;;;;;;;5.97;2.67;;;;;;;;;;5021792;28;20033;-83
2023/01/08 12:56:32;;;;;;;4.60;2.40;;;;;;;;;;5019935;28;20034;-83
2023/01/08 12:59:09;;;;;;;4.63;2.00;;;;;;;;;;5020284;28;20085;-83
2023/01/08 13:01:51;;;;;;;3.47;2.40;;;;;;;;;;5022192;28;20069;-86
2023/01/08 13:04:17;;;;;;;7.00;2.63;;;;;;;;;;5021903;28;20495;-83
2023/01/08 13:07:00;;;;;;;5.22;2.90;;;;;;;;;;5020081;28;20053;-83
2023/01/08 13:09:27;;;;;;;9.65;5.65;;;;;;;;;;5022482;28;20034;-83
2023/01/08 13:11:55;;;;;;;7.18;3.20;;;;;;;;;;5020256;28;20069;-83
2023/01/08 13:14:21;;;;;;;3.60;2.10;;;;;;;;;;5021810;28;20512;-83
2023/01/08 13:17:00;;;;;;;8.52;5.13;;;;;;;;;;5023635;28;20056;-84
2023/01/08 13:19:28;;;;;;;7.45;4.20;;;;;;;;;;5021101;28;20033;-82
2023/01/08 13:21:59;;;;;;;4.88;2.42;;;;;;;;;;5020148;28;20038;-82
2023/01/08 13:24:30;;;;;;;7.28;3.25;;;;;;;;;;5021660;28;20509;-82
2023/01/08 13:27:08;;;;;;;5.40;2.85;;;;;;;;;;5019818;28;20167;-82
2023/01/08 13:29:40;;;;;;;5.55;2.10;;;;;;;;;;5023155;28;20030;-84
2023/01/08 13:32:33;;;;;;;4.55;2.70;;;;;;;;;;5005720;28;20506;-85
2023/01/08 13:35:14;;;;;;;5.47;2.43;;;;;;;;;;5020093;28;20044;-85
2023/01/08 13:37:44;;;;;;;3.60;1.90;;;;;;;;;;5016586;28;20046;-82
2023/01/08 13:40:34;;;;;;;3.55;1.70;;;;;;;;;;5015124;28;20034;-84
2023/01/08 13:43:01;;;;;;;5.47;1.60;;;;;;;;;;5016786;28;20068;-84
2023/01/08 13:45:28;;;;;;;2.95;1.40;;;;;;;;;;5014624;28;20089;-83
2023/01/08 13:47:54;;;;;;;2.38;1.52;;;;;;;;;;5016537;28;20037;-85
2023/01/08 13:50:23;;;;;;;5.93;2.08;;;;;;;;;;5015210;28;20034;-82
2023/01/08 13:52:59;;;;;;;9.00;3.72;;;;;;;;;;5015549;28;20181;-84
2023/01/08 13:55:32;;;;;;;7.53;2.80;;;;;;;;;;5014930;28;20038;-83
2023/01/08 13:58:00;;;;;;;4.13;1.70;;;;;;;;;;5016509;28;20120;-85
2023/01/08 14:00:41;;;;;;;3.65;2.10;;;;;;;;;;5017237;28;20398;-84
2023/01/08 14:03:27;;;;;;;8.43;2.90;;;;;;;;;;5016812;28;20034;-82
2023/01/08 14:06:17;;;;;;;4.07;2.50;;;;;;;;;;5015071;28;20117;-83
2023/01/08 14:08:57;;;;;;;7.32;2.70;;;;;;;;;;5015463;28;20034;-83
2023/01/08 14:11:44;;;;;;;6.93;3.60;;;;;;;;;;5018456;28;20034;-85
2023/01/08 14:14:16;;;;;;;12.15;5.38;;;;;;;;;;5016789;28;20430;-83
2023/01/08 14:16:42;;;;;;;7.20;3.72;;;;;;;;;;5016626;28;20112;-83
2023/01/08 14:19:15;;;;;;;5.07;2.90;;;;;;;;;;5017144;28;20129;-84
2023/01/08 14:21:46;;;;;;;4.90;2.30;;;;;;;;;;5019774;28;20030;-85
2023/01/08 14:24:15;;;;;;;4.93;2.35;;;;;;;;;;5001586;28;20675;-85
2023/01/08 14:26:40;;;;;;;5.03;2.70;;;;;;;;;;5021658;28;20045;-83
2023/01/08 14:29:19;;;;;;;8.70;3.17;;;;;;;;;;5021783;28;20037;-83
2023/01/08 14:31:53;;;;;;;6.05;3.30;;;;;;;;;;5023838;28;20124;-81
2023/01/08 14:34:21;;;;;;;18.55;7.95;;;;;;;;;;5023360;28;20053;-86
2023/01/08 14:36:50;;;;;;;17.33;6.93;;;;;;;;;;5025793;28;20037;-84
2023/01/08 14:39:33;;;;;;;15.82;7.90;;;;;;;;;;5025563;28;20040;-84
2023/01/08 14:42:41;;;;;;;16.93;6.37;;;;;;;;;;5026765;28;20110;-83
2023/01/08 14:45:19;;;;;;;12.60;5.32;;;;;;;;;;5009697;28;20380;-81
2023/01/08 14:47:49;;;;;;;7.68;4.47;;;;;;;;;;5022743;28;20037;-84
2023/01/08 14:50:33;;;;;;;7.30;4.00;;;;;;;;;;5022431;28;20034;-84
2023/01/08 14:53:06;;;;;;;7.00;3.80;;;;;;;;;;5020090;28;20034;-83
2023/01/08 14:55:36;;;;;;;5.90;3.38;;;;;;;;;;5021690;28;20097;-85
2023/01/08 14:58:02;;;;;;;7.97;4.70;;;;;;;;;;5023609;28;20034;-85
2023/01/08 15:00:30;;;;;;;9.52;5.88;;;;;;;;;;5022439;28;20034;-84
2023/01/08 15:02:55;;;;;;;9.93;6.00;;;;;;;;;;5022060;28;20061;-84